Terminal Aerodrome Forecast
Issued by NWS

Home | Current Version | Previous Version | Text Only | Print | Product List | Glossary On
Versions: 1 2 3 4 5 6 7 8 9 10 11 12 13
000
FTUS42 KMHX 282323
TAFISO
TAF
KISO 282323Z 2900/2924 21006KT P6SM FEW250
     FM291500 24010KT P6SM FEW050
     FM292200 25006KT P6SM SCT050
      AMD LTD TO CLD VIS AND WIND=

USA.gov is the U.S. government's official web portal to all federal, state and local government web resources and services.